Time;durP1;ratioP1;P1;durP2;ratioP2;P2;SDS_P1;SDS_P2;PMS_P1;PMS_P2;Temp;Humidity;BMP_temperature;BMP_pressure;BME280_temperature;BME280_humidity;BME280_pressure;Samples;Min_cycle;Max_cycle;Signal;HPM_P1;HPM_P2
2023/09/15 00:02:43;;;;;;;12.73;8.63;;;;;;;;;;10445338;28;20029;-82
2023/09/15 00:07:45;;;;;;;15.25;8.27;;;;;;;;;;10445040;28;20141;-82
2023/09/15 00:12:46;;;;;;;11.68;7.47;;;;;;;;;;10445266;28;20056;-82
2023/09/15 00:17:47;;;;;;;12.30;8.52;;;;;;;;;;10443696;28;20074;-81
2023/09/15 00:22:52;;;;;;;13.95;8.02;;;;;;;;;;10444240;28;20053;-84
2023/09/15 00:27:57;;;;;;;7.10;4.95;;;;;;;;;;10444488;28;20044;-82
2023/09/15 00:32:58;;;;;;;11.20;7.70;;;;;;;;;;10443112;28;20496;-81
2023/09/15 00:37:59;;;;;;;11.65;7.15;;;;;;;;;;10444661;28;20093;-84
2023/09/15 00:43:00;;;;;;;9.70;5.63;;;;;;;;;;10440429;28;20040;-82
2023/09/15 00:48:03;;;;;;;8.07;5.40;;;;;;;;;;10443379;28;20411;-83
2023/09/15 00:53:08;;;;;;;12.23;7.38;;;;;;;;;;10443885;28;20021;-83
2023/09/15 00:58:11;;;;;;;7.10;5.50;;;;;;;;;;10444663;28;20037;-83
2023/09/15 01:03:14;;;;;;;7.55;5.20;;;;;;;;;;10443147;28;20017;-82
2023/09/15 01:08:16;;;;;;;11.48;6.55;;;;;;;;;;10443336;28;20033;-83
2023/09/15 01:13:17;;;;;;;8.00;5.15;;;;;;;;;;10443964;28;20483;-83
2023/09/15 01:18:31;;;;;;;11.82;7.70;;;;;;;;;;10442599;28;20033;-82
2023/09/15 01:23:50;;;;;;;6.28;4.72;;;;;;;;;;10444033;28;20053;-82
2023/09/15 01:29:00;;;;;;;9.70;6.32;;;;;;;;;;10434018;28;20052;-81
2023/09/15 01:34:01;;;;;;;12.52;7.68;;;;;;;;;;10443642;28;20033;-81
2023/09/15 01:39:03;;;;;;;14.10;9.48;;;;;;;;;;10442108;28;20477;-85
2023/09/15 01:44:04;;;;;;;11.30;7.97;;;;;;;;;;10442418;28;20147;-84
2023/09/15 01:49:05;;;;;;;16.33;8.95;;;;;;;;;;10441664;28;20120;-84
2023/09/15 01:54:06;;;;;;;17.75;9.90;;;;;;;;;;10442725;28;20029;-82
2023/09/15 01:59:07;;;;;;;16.27;9.43;;;;;;;;;;10442658;28;20037;-82
2023/09/15 02:04:09;;;;;;;16.60;11.30;;;;;;;;;;10450403;28;20434;-81
2023/09/15 02:09:14;;;;;;;12.88;9.07;;;;;;;;;;10449678;28;20032;-82
2023/09/15 02:14:15;;;;;;;14.85;9.32;;;;;;;;;;10449814;28;20056;-81
2023/09/15 02:19:16;;;;;;;13.48;8.52;;;;;;;;;;10449304;28;20113;-82
2023/09/15 02:24:17;;;;;;;12.57;6.97;;;;;;;;;;10449125;28;20488;-83
2023/09/15 02:29:18;;;;;;;12.45;9.02;;;;;;;;;;10449147;28;20103;-85
2023/09/15 02:34:19;;;;;;;13.25;8.07;;;;;;;;;;10448853;28;20124;-83
2023/09/15 02:39:20;;;;;;;11.57;7.70;;;;;;;;;;10448790;28;20097;-84
2023/09/15 02:44:22;;;;;;;11.60;8.63;;;;;;;;;;10448195;28;20033;-82
2023/09/15 02:49:23;;;;;;;14.25;9.45;;;;;;;;;;10448664;28;20032;-85
2023/09/15 02:54:24;;;;;;;12.23;7.90;;;;;;;;;;10446757;28;20029;-82
2023/09/15 02:59:25;;;;;;;12.57;8.15;;;;;;;;;;10447589;28;20044;-82
2023/09/15 03:04:26;;;;;;;13.13;9.13;;;;;;;;;;10447379;28;20384;-85
2023/09/15 03:09:29;;;;;;;7.18;5.35;;;;;;;;;;10448459;28;20025;-81
2023/09/15 03:14:30;;;;;;;10.65;7.40;;;;;;;;;;10446562;28;20064;-87
2023/09/15 03:19:32;;;;;;;11.38;7.65;;;;;;;;;;10446471;28;20029;-84
2023/09/15 03:24:33;;;;;;;13.00;8.75;;;;;;;;;;10447471;28;20053;-82
2023/09/15 03:29:35;;;;;;;9.45;6.22;;;;;;;;;;10445339;28;20157;-81
2023/09/15 03:34:38;;;;;;;16.38;10.25;;;;;;;;;;10446375;28;20373;-80
2023/09/15 03:39:39;;;;;;;14.88;8.65;;;;;;;;;;10446264;28;20374;-86
2023/09/15 03:44:40;;;;;;;12.23;8.43;;;;;;;;;;10446059;28;20037;-86
2023/09/15 03:49:41;;;;;;;14.88;9.60;;;;;;;;;;10443214;28;20090;-81
2023/09/15 03:54:42;;;;;;;16.70;10.13;;;;;;;;;;10420942;28;20384;-82
2023/09/15 03:59:43;;;;;;;17.40;11.05;;;;;;;;;;10444886;28;20033;-83
2023/09/15 04:04:46;;;;;;;8.60;6.47;;;;;;;;;;10445988;28;20419;-82
2023/09/15 04:09:47;;;;;;;18.75;11.88;;;;;;;;;;10444636;28;20036;-83
2023/09/15 04:14:48;;;;;;;13.48;9.10;;;;;;;;;;10443867;28;20117;-82
2023/09/15 04:19:49;;;;;;;17.55;10.68;;;;;;;;;;10443165;28;20037;-83
2023/09/15 04:24:50;;;;;;;16.85;10.75;;;;;;;;;;10444630;28;20045;-83
2023/09/15 04:29:53;;;;;;;16.85;11.88;;;;;;;;;;10444249;28;20488;-81
2023/09/15 04:34:54;;;;;;;23.27;12.48;;;;;;;;;;10442074;28;20037;-82
2023/09/15 04:39:55;;;;;;;17.50;11.73;;;;;;;;;;10444669;28;20109;-81
2023/09/15 04:44:56;;;;;;;20.38;12.32;;;;;;;;;;10443624;28;20021;-80
2023/09/15 04:49:58;;;;;;;17.00;11.55;;;;;;;;;;10443528;28;20029;-84
2023/09/15 04:54:59;;;;;;;21.80;13.57;;;;;;;;;;10444194;28;20021;-81
2023/09/15 05:00:01;;;;;;;20.92;13.60;;;;;;;;;;10442002;28;20040;-82
2023/09/15 05:05:02;;;;;;;19.80;12.57;;;;;;;;;;10435441;28;20025;-85
2023/09/15 05:10:03;;;;;;;20.17;11.77;;;;;;;;;;10443405;28;20024;-84
2023/09/15 05:15:05;;;;;;;16.52;11.18;;;;;;;;;;10443289;28;20029;-82
2023/09/15 05:20:06;;;;;;;14.57;9.80;;;;;;;;;;10443210;28;20040;-81
2023/09/15 05:25:07;;;;;;;18.90;11.63;;;;;;;;;;10443483;28;20143;-82
2023/09/15 05:30:08;;;;;;;15.98;10.57;;;;;;;;;;10436620;28;20514;-88
2023/09/15 05:35:10;;;;;;;20.65;12.90;;;;;;;;;;10433371;28;20033;-87
2023/09/15 05:40:11;;;;;;;18.70;12.13;;;;;;;;;;10451908;28;20144;-86
2023/09/15 05:45:12;;;;;;;19.13;12.57;;;;;;;;;;10452205;28;20056;-87
2023/09/15 05:50:13;;;;;;;22.83;13.98;;;;;;;;;;10449531;28;20028;-85
2023/09/15 05:55:15;;;;;;;22.58;14.88;;;;;;;;;;10449563;28;20021;-83
2023/09/15 06:00:16;;;;;;;23.00;15.60;;;;;;;;;;10442895;28;20041;-85
2023/09/15 06:05:19;;;;;;;25.63;15.77;;;;;;;;;;10439246;28;20107;-87
2023/09/15 06:10:21;;;;;;;26.65;14.48;;;;;;;;;;10450789;28;20053;-86
2023/09/15 06:15:23;;;;;;;23.52;14.95;;;;;;;;;;10452311;28;20090;-83
2023/09/15 06:20:26;;;;;;;18.90;13.27;;;;;;;;;;10431612;28;20045;-84
2023/09/15 06:25:27;;;;;;;21.63;13.27;;;;;;;;;;10449219;28;20499;-82
2023/09/15 06:30:29;;;;;;;14.82;11.10;;;;;;;;;;10449420;28;20067;-82
2023/09/15 06:35:31;;;;;;;15.20;9.43;;;;;;;;;;10449042;28;20078;-88
2023/09/15 06:40:32;;;;;;;14.52;9.73;;;;;;;;;;10449483;28;20159;-82
2023/09/15 06:45:33;;;;;;;11.27;6.93;;;;;;;;;;10448874;28;20151;-83
2023/09/15 06:50:34;;;;;;;17.10;7.70;;;;;;;;;;10435713;28;20050;-86
2023/09/15 06:55:35;;;;;;;13.02;7.35;;;;;;;;;;10449109;28;20086;-82
2023/09/15 07:00:36;;;;;;;8.95;6.47;;;;;;;;;;10447953;28;20457;-82
2023/09/15 07:05:39;;;;;;;9.52;6.28;;;;;;;;;;10448421;28;20469;-86
2023/09/15 07:10:40;;;;;;;8.05;4.93;;;;;;;;;;10446861;28;20039;-84
2023/09/15 07:15:41;;;;;;;5.85;4.32;;;;;;;;;;10445395;28;20033;-84
2023/09/15 07:20:42;;;;;;;6.05;4.82;;;;;;;;;;10446994;28;20040;-83
2023/09/15 07:25:47;;;;;;;13.60;6.63;;;;;;;;;;10446279;28;20504;-83
2023/09/15 07:30:48;;;;;;;10.93;6.55;;;;;;;;;;10447048;28;20036;-84
2023/09/15 07:35:50;;;;;;;11.43;6.05;;;;;;;;;;10446315;28;20611;-86
2023/09/15 07:40:51;;;;;;;8.95;6.10;;;;;;;;;;10446726;28;20068;-86
2023/09/15 07:45:52;;;;;;;9.40;4.70;;;;;;;;;;10446113;28;20115;-84
2023/09/15 07:50:53;;;;;;;7.03;4.88;;;;;;;;;;10444099;28;20392;-87
2023/09/15 07:55:54;;;;;;;7.85;5.05;;;;;;;;;;10445729;28;20043;-84
2023/09/15 08:00:57;;;;;;;7.53;5.03;;;;;;;;;;10455830;28;20037;-87
2023/09/15 08:05:58;;;;;;;8.77;5.53;;;;;;;;;;10429563;28;20025;-83
2023/09/15 08:10:59;;;;;;;7.57;5.00;;;;;;;;;;10445189;28;20036;-83
2023/09/15 08:16:00;;;;;;;6.05;4.20;;;;;;;;;;10443274;28;20094;-81
2023/09/15 08:21:01;;;;;;;6.35;4.50;;;;;;;;;;10445444;28;20060;-82
2023/09/15 08:26:02;;;;;;;5.05;3.72;;;;;;;;;;10444106;28;20049;-83
2023/09/15 08:31:03;;;;;;;4.90;3.50;;;;;;;;;;10444423;28;20096;-83
2023/09/15 08:36:04;;;;;;;3.58;2.72;;;;;;;;;;10444279;28;20043;-83
2023/09/15 08:41:09;;;;;;;4.40;2.80;;;;;;;;;;10443717;28;20079;-82
2023/09/15 08:46:11;;;;;;;6.35;2.88;;;;;;;;;;10447146;28;20035;-83
2023/09/15 08:51:14;;;;;;;4.38;3.33;;;;;;;;;;10438463;28;20115;-83
2023/09/15 08:56:15;;;;;;;4.55;2.83;;;;;;;;;;10439252;28;20040;-86
2023/09/15 09:01:16;;;;;;;4.70;3.10;;;;;;;;;;10440888;28;20037;-86
2023/09/15 09:06:18;;;;;;;5.07;3.03;;;;;;;;;;10439690;28;20036;-88
2023/09/15 09:11:20;;;;;;;5.25;3.72;;;;;;;;;;10441038;28;20029;-85
2023/09/15 09:16:21;;;;;;;5.82;2.90;;;;;;;;;;10441714;28;20036;-87
2023/09/15 09:21:27;;;;;;;5.78;3.70;;;;;;;;;;10441326;28;20041;-83
2023/09/15 09:26:28;;;;;;;4.90;2.50;;;;;;;;;;10435786;28;20095;-84
2023/09/15 09:31:29;;;;;;;5.07;2.67;;;;;;;;;;10442491;28;20381;-85
2023/09/15 09:36:31;;;;;;;3.50;2.20;;;;;;;;;;10442900;28;20041;-85
2023/09/15 09:41:32;;;;;;;4.60;2.50;;;;;;;;;;10441870;28;20788;-83
2023/09/15 09:46:33;;;;;;;5.47;3.45;;;;;;;;;;10451138;28;20075;-86
2023/09/15 09:51:38;;;;;;;2.42;2.15;;;;;;;;;;10441381;28;20033;-84
2023/09/15 09:56:39;;;;;;;4.40;2.85;;;;;;;;;;10435804;28;20056;-83
2023/09/15 10:01:41;;;;;;;4.63;2.40;;;;;;;;;;10440986;28;20048;-85
2023/09/15 10:06:43;;;;;;;6.68;2.92;;;;;;;;;;10435668;28;20480;-86
2023/09/15 10:11:44;;;;;;;5.30;2.22;;;;;;;;;;10441704;28;20611;-86
2023/09/15 10:16:46;;;;;;;3.28;2.35;;;;;;;;;;10432398;28;20080;-85
2023/09/15 10:21:47;;;;;;;3.20;2.33;;;;;;;;;;10444914;28;20045;-84
2023/09/15 10:26:48;;;;;;;3.95;2.30;;;;;;;;;;10439838;28;20464;-84
2023/09/15 10:31:49;;;;;;;2.75;2.03;;;;;;;;;;10449416;28;20083;-86
2023/09/15 10:36:52;;;;;;;3.97;2.55;;;;;;;;;;10452651;28;20052;-84
2023/09/15 10:41:55;;;;;;;5.45;2.88;;;;;;;;;;10453401;28;20586;-88
2023/09/15 10:46:56;;;;;;;3.78;2.33;;;;;;;;;;10445136;28;20372;-85
2023/09/15 10:51:58;;;;;;;2.95;1.83;;;;;;;;;;10447622;28;20036;-84
2023/09/15 10:57:00;;;;;;;4.88;1.88;;;;;;;;;;10442676;28;20021;-85
2023/09/15 11:02:01;;;;;;;3.15;2.08;;;;;;;;;;10445597;28;20069;-87
2023/09/15 11:07:06;;;;;;;3.13;1.58;;;;;;;;;;10440317;28;20060;-83
2023/09/15 11:12:07;;;;;;;3.10;1.65;;;;;;;;;;10436540;28;20033;-87
2023/09/15 11:17:09;;;;;;;3.42;1.80;;;;;;;;;;10430436;28;20024;-85
2023/09/15 11:22:11;;;;;;;5.20;1.92;;;;;;;;;;10441627;28;20034;-83
2023/09/15 11:27:15;;;;;;;2.90;2.05;;;;;;;;;;10440553;28;20542;-83
2023/09/15 11:32:16;;;;;;;4.40;2.40;;;;;;;;;;10446689;28;20400;-84
2023/09/15 11:37:17;;;;;;;2.75;1.73;;;;;;;;;;10445621;28;20025;-87
2023/09/15 11:42:18;;;;;;;3.60;1.80;;;;;;;;;;10444023;28;20185;-84
2023/09/15 11:47:19;;;;;;;3.63;1.80;;;;;;;;;;10445703;28;20059;-88
2023/09/15 11:52:20;;;;;;;2.20;1.60;;;;;;;;;;10443771;28;20415;-86
2023/09/15 11:57:22;;;;;;;2.20;1.77;;;;;;;;;;10445978;28;20462;-85
2023/09/15 12:02:24;;;;;;;3.00;1.83;;;;;;;;;;10444483;28;20036;-86
2023/09/15 12:07:25;;;;;;;3.50;2.10;;;;;;;;;;10442392;28;20659;-82
2023/09/15 12:12:26;;;;;;;4.13;1.90;;;;;;;;;;10421205;28;20045;-85
2023/09/15 12:17:29;;;;;;;2.78;1.67;;;;;;;;;;10444375;28;20029;-85
2023/09/15 12:22:31;;;;;;;2.58;1.73;;;;;;;;;;10443701;28;20037;-91
2023/09/15 12:27:33;;;;;;;2.38;1.92;;;;;;;;;;10435998;28;20045;-85
2023/09/15 12:32:35;;;;;;;3.33;1.80;;;;;;;;;;10440839;28;20031;-87
2023/09/15 12:37:40;;;;;;;2.60;1.77;;;;;;;;;;10441033;28;20509;-87
2023/09/15 12:42:45;;;;;;;2.90;1.63;;;;;;;;;;10438064;28;20041;-83
2023/09/15 12:47:46;;;;;;;2.03;1.50;;;;;;;;;;10442090;28;20099;-83
2023/09/15 12:52:47;;;;;;;3.05;1.50;;;;;;;;;;10441978;28;20108;-88
2023/09/15 12:57:49;;;;;;;2.83;1.80;;;;;;;;;;10443172;28;20114;-83
2023/09/15 13:02:50;;;;;;;2.13;1.60;;;;;;;;;;10425205;28;20074;-83
2023/09/15 13:07:51;;;;;;;2.50;1.77;;;;;;;;;;10440770;28;20025;-85
2023/09/15 13:12:52;;;;;;;3.08;1.83;;;;;;;;;;10441685;28;20033;-83
2023/09/15 13:17:53;;;;;;;1.95;1.67;;;;;;;;;;10443486;28;20045;-83
2023/09/15 13:22:54;;;;;;;2.63;1.83;;;;;;;;;;10443574;28;20032;-87
2023/09/15 13:27:55;;;;;;;4.35;2.03;;;;;;;;;;10442057;28;20040;-82
2023/09/15 13:33:06;;;;;;;3.13;1.90;;;;;;;;;;10442661;28;20044;-85
2023/09/15 13:38:16;;;;;;;2.65;1.77;;;;;;;;;;10438693;28;20086;-83
2023/09/15 13:43:17;;;;;;;3.42;2.00;;;;;;;;;;10439089;28;20029;-82
2023/09/15 13:48:20;;;;;;;3.75;2.03;;;;;;;;;;10444289;28;20037;-86
2023/09/15 13:53:21;;;;;;;3.03;1.60;;;;;;;;;;10444275;28;20043;-83
2023/09/15 13:58:22;;;;;;;4.85;1.67;;;;;;;;;;10448252;28;20045;-84
2023/09/15 14:03:23;;;;;;;3.60;1.60;;;;;;;;;;10434616;28;20033;-83
2023/09/15 14:08:24;;;;;;;2.10;1.42;;;;;;;;;;10443026;28;20448;-87
2023/09/15 14:13:25;;;;;;;2.05;1.80;;;;;;;;;;10449905;28;20025;-87
2023/09/15 14:18:26;;;;;;;4.32;2.42;;;;;;;;;;10453756;28;20095;-84
2023/09/15 14:24:12;;;;;;;3.63;2.72;;;;;;;;;;10450049;28;20067;-85
2023/09/15 14:29:13;;;;;;;4.15;2.08;;;;;;;;;;10483532;28;20094;-83
2023/09/15 14:34:14;;;;;;;3.40;1.85;;;;;;;;;;10483619;28;20051;-85
2023/09/15 14:39:15;;;;;;;2.78;2.08;;;;;;;;;;10475610;28;20036;-83
2023/09/15 14:44:18;;;;;;;4.38;2.40;;;;;;;;;;10489225;28;20025;-83
2023/09/15 14:49:19;;;;;;;5.65;2.60;;;;;;;;;;10485731;28;20060;-83
2023/09/15 14:54:20;;;;;;;2.85;1.85;;;;;;;;;;10487919;28;20036;-82
2023/09/15 14:59:22;;;;;;;8.68;6.28;;;;;;;;;;10487957;28;20119;-83
2023/09/15 15:04:23;;;;;;;5.70;3.50;;;;;;;;;;10488705;28;20390;-80
2023/09/15 15:09:24;;;;;;;3.30;2.17;;;;;;;;;;10482659;28;20032;-85
2023/09/15 15:14:25;;;;;;;3.97;2.05;;;;;;;;;;10468505;28;20036;-83
2023/09/15 15:19:27;;;;;;;4.00;2.30;;;;;;;;;;10486989;28;20040;-82
2023/09/15 15:24:28;;;;;;;5.75;2.67;;;;;;;;;;10467348;28;20104;-85
2023/09/15 15:29:29;;;;;;;4.50;2.35;;;;;;;;;;10488783;28;20025;-83
2023/09/15 15:34:30;;;;;;;3.78;2.10;;;;;;;;;;10495524;28;20119;-84
2023/09/15 15:39:33;;;;;;;5.55;2.22;;;;;;;;;;10485664;28;20094;-83
2023/09/15 15:44:34;;;;;;;3.58;2.60;;;;;;;;;;10486167;28;20058;-83
2023/09/15 15:49:35;;;;;;;3.83;2.45;;;;;;;;;;10488971;28;20128;-83
2023/09/15 15:54:36;;;;;;;4.28;2.28;;;;;;;;;;10469961;28;20040;-83
2023/09/15 15:59:38;;;;;;;4.00;2.10;;;;;;;;;;10486546;28;20040;-84
2023/09/15 16:04:39;;;;;;;4.18;2.30;;;;;;;;;;10483093;28;20488;-82
2023/09/15 16:09:40;;;;;;;3.20;2.17;;;;;;;;;;10486589;28;20060;-82
2023/09/15 16:14:41;;;;;;;2.92;2.22;;;;;;;;;;10473767;28;20062;-83
2023/09/15 16:19:42;;;;;;;3.17;2.00;;;;;;;;;;10479974;28;20028;-83
2023/09/15 16:24:43;;;;;;;3.20;2.40;;;;;;;;;;10479807;28;20101;-84
2023/09/15 16:30:05;;;;;;;4.18;2.15;;;;;;;;;;10487361;28;20365;-83
2023/09/15 16:35:27;;;;;;;3.88;2.10;;;;;;;;;;10456089;28;20024;-82
2023/09/15 16:40:29;;;;;;;2.65;1.73;;;;;;;;;;10463693;28;20550;-83
2023/09/15 16:45:32;;;;;;;6.40;2.50;;;;;;;;;;10486280;28;20036;-83
2023/09/15 16:50:33;;;;;;;3.05;2.47;;;;;;;;;;10454225;28;20020;-83
2023/09/15 16:55:34;;;;;;;3.42;2.20;;;;;;;;;;10487214;28;20041;-85
2023/09/15 17:00:35;;;;;;;4.63;2.25;;;;;;;;;;10486820;28;20425;-88
2023/09/15 17:05:36;;;;;;;3.00;2.28;;;;;;;;;;10489463;28;20120;-87
2023/09/15 17:10:37;;;;;;;3.85;2.33;;;;;;;;;;10468329;28;20365;-86
2023/09/15 17:15:38;;;;;;;4.70;2.40;;;;;;;;;;10487451;28;20039;-85
2023/09/15 17:20:45;;;;;;;6.53;2.38;;;;;;;;;;10479157;28;20044;-85
2023/09/15 17:25:46;;;;;;;2.83;2.00;;;;;;;;;;10467739;28;20076;-85
2023/09/15 17:30:47;;;;;;;3.88;2.40;;;;;;;;;;10474317;28;20442;-86
2023/09/15 17:35:49;;;;;;;6.95;4.63;;;;;;;;;;10500195;28;20073;-86
2023/09/15 17:40:50;;;;;;;9.27;5.05;;;;;;;;;;10481559;28;20080;-85
2023/09/15 17:45:54;;;;;;;6.45;4.13;;;;;;;;;;10477564;28;20055;-86
2023/09/15 17:50:55;;;;;;;6.65;3.42;;;;;;;;;;10495649;28;20064;-86
2023/09/15 17:55:56;;;;;;;7.40;3.67;;;;;;;;;;10497720;28;20491;-85
2023/09/15 18:00:57;;;;;;;5.70;4.32;;;;;;;;;;10494611;28;20101;-85
2023/09/15 18:06:05;;;;;;;9.80;5.82;;;;;;;;;;10497318;28;20120;-87
2023/09/15 18:11:06;;;;;;;9.13;4.70;;;;;;;;;;10497926;28;20021;-86
2023/09/15 18:16:08;;;;;;;7.85;4.10;;;;;;;;;;10496764;28;20067;-85
2023/09/15 18:21:09;;;;;;;7.80;3.50;;;;;;;;;;10490190;28;20037;-84
2023/09/15 18:26:11;;;;;;;5.40;3.45;;;;;;;;;;10482159;28;20056;-86
2023/09/15 18:31:12;;;;;;;5.80;3.72;;;;;;;;;;10497066;28;20064;-81
2023/09/15 18:36:13;;;;;;;6.43;3.95;;;;;;;;;;10493696;28;20040;-81
2023/09/15 18:41:14;;;;;;;7.22;3.90;;;;;;;;;;10493816;28;20044;-85
2023/09/15 18:46:15;;;;;;;5.50;3.55;;;;;;;;;;10462314;28;20135;-83
2023/09/15 18:51:16;;;;;;;6.68;4.07;;;;;;;;;;10481239;28;20033;-85
2023/09/15 18:56:17;;;;;;;7.80;4.30;;;;;;;;;;10485094;28;20032;-84
2023/09/15 19:01:22;;;;;;;9.00;4.47;;;;;;;;;;10488579;28;20041;-82
2023/09/15 19:06:23;;;;;;;8.10;4.05;;;;;;;;;;10489313;28;20037;-87
2023/09/15 19:11:24;;;;;;;10.48;4.70;;;;;;;;;;10487089;28;20028;-83
2023/09/15 19:16:25;;;;;;;9.05;4.78;;;;;;;;;;10487899;28;20029;-84
2023/09/15 19:21:26;;;;;;;8.10;4.05;;;;;;;;;;10484909;28;20419;-83
2023/09/15 19:26:27;;;;;;;7.72;4.68;;;;;;;;;;10480478;28;20059;-85
2023/09/15 19:31:28;;;;;;;10.15;4.90;;;;;;;;;;10488113;28;20043;-82
2023/09/15 19:36:29;;;;;;;8.02;4.43;;;;;;;;;;10484882;28;20040;-87
2023/09/15 19:41:31;;;;;;;7.57;4.75;;;;;;;;;;10473995;28;20040;-83
2023/09/15 19:46:32;;;;;;;7.70;4.70;;;;;;;;;;10459324;28;20066;-82
2023/09/15 19:51:33;;;;;;;7.57;4.43;;;;;;;;;;10473959;28;20068;-83
2023/09/15 19:56:34;;;;;;;5.88;4.00;;;;;;;;;;10459528;28;20043;-82
2023/09/15 20:01:35;;;;;;;8.15;4.47;;;;;;;;;;10463565;28;20472;-83
2023/09/15 20:06:36;;;;;;;7.85;5.00;;;;;;;;;;10460561;28;20028;-83
2023/09/15 20:11:37;;;;;;;6.38;4.43;;;;;;;;;;10464864;28;20032;-83
2023/09/15 20:16:38;;;;;;;10.07;4.40;;;;;;;;;;10455487;28;20055;-82
2023/09/15 20:21:39;;;;;;;6.85;4.53;;;;;;;;;;10459947;28;20372;-84
2023/09/15 20:26:42;;;;;;;8.80;4.82;;;;;;;;;;10480245;28;20053;-82
2023/09/15 20:31:45;;;;;;;12.90;5.57;;;;;;;;;;10467741;28;20085;-84
2023/09/15 20:36:46;;;;;;;11.05;5.30;;;;;;;;;;10485465;28;20028;-83
2023/09/15 20:41:47;;;;;;;7.38;4.65;;;;;;;;;;10486052;28;20123;-83
2023/09/15 20:46:48;;;;;;;7.20;4.68;;;;;;;;;;10484443;28;20402;-82
2023/09/15 20:51:49;;;;;;;8.77;5.45;;;;;;;;;;10484215;28;20431;-82
2023/09/15 20:56:50;;;;;;;7.63;4.50;;;;;;;;;;10485756;28;20035;-82
2023/09/15 21:01:51;;;;;;;8.10;4.82;;;;;;;;;;10484406;28;20488;-83
2023/09/15 21:06:54;;;;;;;8.20;5.28;;;;;;;;;;10484742;28;20108;-82
2023/09/15 21:11:55;;;;;;;10.40;5.70;;;;;;;;;;10484573;28;20035;-82
2023/09/15 21:16:56;;;;;;;8.27;4.40;;;;;;;;;;10483592;28;20122;-81
2023/09/15 21:21:57;;;;;;;7.80;4.70;;;;;;;;;;10484407;28;20074;-81
2023/09/15 21:26:59;;;;;;;8.32;4.55;;;;;;;;;;10476689;28;20048;-83
2023/09/15 21:32:00;;;;;;;13.23;5.32;;;;;;;;;;10485789;28;20085;-82
2023/09/15 21:37:01;;;;;;;6.95;4.22;;;;;;;;;;10484627;28;20025;-81
2023/09/15 21:42:02;;;;;;;6.38;3.80;;;;;;;;;;10484293;28;20757;-82
2023/09/15 21:47:03;;;;;;;8.82;4.88;;;;;;;;;;10483162;28;20103;-81
2023/09/15 21:52:05;;;;;;;13.00;5.78;;;;;;;;;;10483880;28;20032;-81
2023/09/15 21:57:06;;;;;;;9.18;4.85;;;;;;;;;;10484969;28;20032;-82
2023/09/15 22:02:07;;;;;;;9.32;5.15;;;;;;;;;;10484238;28;20480;-82
2023/09/15 22:07:08;;;;;;;8.73;4.90;;;;;;;;;;10482954;28;20037;-82
2023/09/15 22:12:09;;;;;;;12.25;5.35;;;;;;;;;;10482327;28;20391;-84
2023/09/15 22:17:10;;;;;;;9.30;5.15;;;;;;;;;;10485396;28;20036;-82
2023/09/15 22:22:11;;;;;;;8.52;4.90;;;;;;;;;;10491146;28;20052;-82
2023/09/15 22:27:13;;;;;;;7.35;4.18;;;;;;;;;;10491803;28;20044;-81
2023/09/15 22:32:15;;;;;;;8.30;4.97;;;;;;;;;;10490750;28;20051;-82
2023/09/15 22:37:16;;;;;;;10.80;4.88;;;;;;;;;;10489363;28;20664;-82
2023/09/15 22:42:17;;;;;;;12.75;5.90;;;;;;;;;;10491108;28;20048;-82
2023/09/15 22:47:20;;;;;;;9.15;4.72;;;;;;;;;;10490983;28;20081;-82
2023/09/15 22:52:21;;;;;;;8.13;4.80;;;;;;;;;;10489632;28;20046;-82
2023/09/15 22:57:22;;;;;;;11.00;5.25;;;;;;;;;;10472136;28;20465;-82
2023/09/15 23:02:24;;;;;;;8.32;4.50;;;;;;;;;;10490375;28;20044;-81
2023/09/15 23:07:24;;;;;;;8.20;4.90;;;;;;;;;;10488865;28;20067;-82
2023/09/15 23:12:25;;;;;;;8.43;5.70;;;;;;;;;;10490395;28;20031;-81
2023/09/15 23:17:27;;;;;;;9.88;4.45;;;;;;;;;;10488574;28;20032;-81
2023/09/15 23:22:29;;;;;;;9.55;4.80;;;;;;;;;;10489264;28;20075;-81
2023/09/15 23:27:30;;;;;;;10.27;4.63;;;;;;;;;;10479330;28;20492;-81
2023/09/15 23:32:31;;;;;;;6.22;3.80;;;;;;;;;;10470398;28;20096;-82
2023/09/15 23:37:32;;;;;;;8.18;4.10;;;;;;;;;;10488696;28;20040;-82
2023/09/15 23:42:33;;;;;;;6.75;4.53;;;;;;;;;;10462738;28;20042;-82
2023/09/15 23:47:34;;;;;;;8.75;4.00;;;;;;;;;;10476320;28;20036;-82
2023/09/15 23:52:35;;;;;;;8.73;4.70;;;;;;;;;;10487217;28;20043;-82
2023/09/15 23:57:37;;;;;;;10.88;4.97;;;;;;;;;;10487238;28;20541;-83
